sensor_id;sensor_type;location;lat;lon;timestamp;P1;durP1;ratioP1;P2;durP2;ratioP2
28074;SDS011;15385;51.088;6.572;2023-04-24T00:00:50;2.03;;;1.10;;
28074;SDS011;15385;51.088;6.572;2023-04-24T00:03:22;1.92;;;1.20;;
28074;SDS011;15385;51.088;6.572;2023-04-24T00:05:54;1.50;;;1.25;;
28074;SDS011;15385;51.088;6.572;2023-04-24T00:08:25;1.52;;;1.00;;
28074;SDS011;15385;51.088;6.572;2023-04-24T00:10:55;2.63;;;1.30;;
28074;SDS011;15385;51.088;6.572;2023-04-24T00:13:26;2.67;;;1.40;;
28074;SDS011;15385;51.088;6.572;2023-04-24T00:15:58;2.30;;;1.33;;
28074;SDS011;15385;51.088;6.572;2023-04-24T00:18:28;3.90;;;1.70;;
28074;SDS011;15385;51.088;6.572;2023-04-24T00:20:59;3.17;;;1.50;;
28074;SDS011;15385;51.088;6.572;2023-04-24T00:23:30;4.00;;;1.40;;
28074;SDS011;15385;51.088;6.572;2023-04-24T00:26:00;2.15;;;1.50;;
28074;SDS011;15385;51.088;6.572;2023-04-24T00:28:32;5.00;;;1.55;;
28074;SDS011;15385;51.088;6.572;2023-04-24T00:31:02;5.68;;;1.70;;
28074;SDS011;15385;51.088;6.572;2023-04-24T00:33:33;1.80;;;1.23;;
28074;SDS011;15385;51.088;6.572;2023-04-24T00:36:03;2.08;;;1.27;;
28074;SDS011;15385;51.088;6.572;2023-04-24T00:38:34;3.70;;;1.80;;
28074;SDS011;15385;51.088;6.572;2023-04-24T00:41:05;2.65;;;1.42;;
28074;SDS011;15385;51.088;6.572;2023-04-24T00:43:35;2.05;;;1.38;;
28074;SDS011;15385;51.088;6.572;2023-04-24T00:46:06;3.17;;;1.67;;
28074;SDS011;15385;51.088;6.572;2023-04-24T00:48:38;3.25;;;2.05;;
28074;SDS011;15385;51.088;6.572;2023-04-24T00:51:09;3.70;;;2.33;;
28074;SDS011;15385;51.088;6.572;2023-04-24T00:53:40;4.53;;;2.60;;
28074;SDS011;15385;51.088;6.572;2023-04-24T00:56:11;4.68;;;2.92;;
28074;SDS011;15385;51.088;6.572;2023-04-24T01:01:12;5.68;;;3.05;;
28074;SDS011;15385;51.088;6.572;2023-04-24T01:03:44;4.97;;;3.63;;
28074;SDS011;15385;51.088;6.572;2023-04-24T01:06:15;5.22;;;3.83;;
28074;SDS011;15385;51.088;6.572;2023-04-24T01:08:46;6.97;;;4.28;;
28074;SDS011;15385;51.088;6.572;2023-04-24T01:11:17;8.00;;;4.50;;
28074;SDS011;15385;51.088;6.572;2023-04-24T01:13:48;7.78;;;4.40;;
28074;SDS011;15385;51.088;6.572;2023-04-24T01:16:19;6.05;;;4.53;;
28074;SDS011;15385;51.088;6.572;2023-04-24T01:18:52;7.05;;;4.55;;
28074;SDS011;15385;51.088;6.572;2023-04-24T01:21:23;6.97;;;4.53;;
28074;SDS011;15385;51.088;6.572;2023-04-24T01:23:57;6.97;;;4.47;;
28074;SDS011;15385;51.088;6.572;2023-04-24T01:26:28;7.60;;;5.38;;
28074;SDS011;15385;51.088;6.572;2023-04-24T01:28:58;8.77;;;5.90;;
28074;SDS011;15385;51.088;6.572;2023-04-24T01:31:29;7.80;;;5.80;;
28074;SDS011;15385;51.088;6.572;2023-04-24T01:34:00;9.07;;;5.78;;
28074;SDS011;15385;51.088;6.572;2023-04-24T01:36:32;10.18;;;5.60;;
28074;SDS011;15385;51.088;6.572;2023-04-24T01:39:06;13.00;;;5.97;;
28074;SDS011;15385;51.088;6.572;2023-04-24T01:41:36;12.25;;;6.10;;
28074;SDS011;15385;51.088;6.572;2023-04-24T01:44:07;9.02;;;6.47;;
28074;SDS011;15385;51.088;6.572;2023-04-24T01:46:38;11.27;;;5.95;;
28074;SDS011;15385;51.088;6.572;2023-04-24T01:49:08;11.75;;;6.53;;
28074;SDS011;15385;51.088;6.572;2023-04-24T01:51:39;10.88;;;6.55;;
28074;SDS011;15385;51.088;6.572;2023-04-24T01:54:10;13.90;;;6.55;;
28074;SDS011;15385;51.088;6.572;2023-04-24T01:56:41;9.52;;;6.60;;
28074;SDS011;15385;51.088;6.572;2023-04-24T01:59:12;13.30;;;7.13;;
28074;SDS011;15385;51.088;6.572;2023-04-24T02:01:43;14.30;;;7.18;;
28074;SDS011;15385;51.088;6.572;2023-04-24T02:04:13;12.05;;;7.70;;
28074;SDS011;15385;51.088;6.572;2023-04-24T02:06:45;9.70;;;7.63;;
28074;SDS011;15385;51.088;6.572;2023-04-24T02:09:15;12.75;;;8.18;;
28074;SDS011;15385;51.088;6.572;2023-04-24T02:11:46;10.85;;;7.38;;
28074;SDS011;15385;51.088;6.572;2023-04-24T02:14:17;12.63;;;8.73;;
28074;SDS011;15385;51.088;6.572;2023-04-24T02:16:47;14.20;;;8.45;;
28074;SDS011;15385;51.088;6.572;2023-04-24T02:19:18;14.02;;;7.82;;
28074;SDS011;15385;51.088;6.572;2023-04-24T02:21:49;20.48;;;9.30;;
28074;SDS011;15385;51.088;6.572;2023-04-24T02:24:20;20.02;;;9.00;;
28074;SDS011;15385;51.088;6.572;2023-04-24T02:26:50;15.70;;;9.50;;
28074;SDS011;15385;51.088;6.572;2023-04-24T02:29:21;17.58;;;8.82;;
28074;SDS011;15385;51.088;6.572;2023-04-24T02:31:52;12.18;;;8.57;;
28074;SDS011;15385;51.088;6.572;2023-04-24T02:34:23;13.38;;;8.50;;
28074;SDS011;15385;51.088;6.572;2023-04-24T02:36:53;14.02;;;8.88;;
28074;SDS011;15385;51.088;6.572;2023-04-24T02:39:24;13.30;;;8.23;;
28074;SDS011;15385;51.088;6.572;2023-04-24T02:41:55;15.25;;;8.35;;
28074;SDS011;15385;51.088;6.572;2023-04-24T02:44:25;13.63;;;8.07;;
28074;SDS011;15385;51.088;6.572;2023-04-24T02:46:56;14.30;;;7.75;;
28074;SDS011;15385;51.088;6.572;2023-04-24T02:49:26;11.98;;;7.53;;
28074;SDS011;15385;51.088;6.572;2023-04-24T02:51:57;17.73;;;8.77;;
28074;SDS011;15385;51.088;6.572;2023-04-24T02:54:27;19.13;;;8.05;;
28074;SDS011;15385;51.088;6.572;2023-04-24T02:56:58;12.55;;;7.88;;
28074;SDS011;15385;51.088;6.572;2023-04-24T02:59:29;11.63;;;8.57;;
28074;SDS011;15385;51.088;6.572;2023-04-24T03:01:59;14.38;;;8.85;;
28074;SDS011;15385;51.088;6.572;2023-04-24T03:04:30;12.82;;;8.57;;
28074;SDS011;15385;51.088;6.572;2023-04-24T03:07:00;14.77;;;9.23;;
28074;SDS011;15385;51.088;6.572;2023-04-24T03:09:31;12.00;;;8.18;;
28074;SDS011;15385;51.088;6.572;2023-04-24T03:12:01;14.32;;;8.65;;
28074;SDS011;15385;51.088;6.572;2023-04-24T03:14:32;15.30;;;9.27;;
28074;SDS011;15385;51.088;6.572;2023-04-24T03:17:03;11.25;;;8.05;;
28074;SDS011;15385;51.088;6.572;2023-04-24T03:19:33;15.95;;;8.68;;
28074;SDS011;15385;51.088;6.572;2023-04-24T03:22:04;11.23;;;7.97;;
28074;SDS011;15385;51.088;6.572;2023-04-24T03:24:35;15.57;;;7.88;;
28074;SDS011;15385;51.088;6.572;2023-04-24T03:27:05;13.82;;;8.45;;
28074;SDS011;15385;51.088;6.572;2023-04-24T03:29:36;13.32;;;8.40;;
28074;SDS011;15385;51.088;6.572;2023-04-24T03:32:06;16.08;;;8.38;;
28074;SDS011;15385;51.088;6.572;2023-04-24T03:34:37;11.68;;;8.30;;
28074;SDS011;15385;51.088;6.572;2023-04-24T03:37:08;15.52;;;8.20;;
28074;SDS011;15385;51.088;6.572;2023-04-24T03:39:38;14.48;;;8.88;;
28074;SDS011;15385;51.088;6.572;2023-04-24T03:42:09;11.68;;;8.00;;
28074;SDS011;15385;51.088;6.572;2023-04-24T03:44:39;12.38;;;8.48;;
28074;SDS011;15385;51.088;6.572;2023-04-24T03:47:10;13.65;;;8.40;;
28074;SDS011;15385;51.088;6.572;2023-04-24T03:49:41;14.88;;;8.68;;
28074;SDS011;15385;51.088;6.572;2023-04-24T03:52:11;16.30;;;8.88;;
28074;SDS011;15385;51.088;6.572;2023-04-24T03:54:42;13.18;;;8.18;;
28074;SDS011;15385;51.088;6.572;2023-04-24T03:57:12;16.45;;;8.95;;
28074;SDS011;15385;51.088;6.572;2023-04-24T03:59:43;14.93;;;9.68;;
28074;SDS011;15385;51.088;6.572;2023-04-24T04:02:14;13.05;;;8.80;;
28074;SDS011;15385;51.088;6.572;2023-04-24T04:04:44;13.02;;;8.98;;
28074;SDS011;15385;51.088;6.572;2023-04-24T04:07:15;10.43;;;8.20;;
28074;SDS011;15385;51.088;6.572;2023-04-24T04:09:46;14.85;;;9.10;;
28074;SDS011;15385;51.088;6.572;2023-04-24T04:12:17;15.27;;;9.00;;
28074;SDS011;15385;51.088;6.572;2023-04-24T04:14:48;13.63;;;8.60;;
28074;SDS011;15385;51.088;6.572;2023-04-24T04:17:18;14.27;;;8.35;;
28074;SDS011;15385;51.088;6.572;2023-04-24T04:19:49;14.43;;;8.32;;
28074;SDS011;15385;51.088;6.572;2023-04-24T04:22:19;13.38;;;8.10;;
28074;SDS011;15385;51.088;6.572;2023-04-24T04:24:50;16.27;;;8.32;;
28074;SDS011;15385;51.088;6.572;2023-04-24T04:27:21;14.85;;;7.70;;
28074;SDS011;15385;51.088;6.572;2023-04-24T04:29:51;15.77;;;8.23;;
28074;SDS011;15385;51.088;6.572;2023-04-24T04:32:22;12.57;;;8.07;;
28074;SDS011;15385;51.088;6.572;2023-04-24T04:34:53;12.27;;;7.53;;
28074;SDS011;15385;51.088;6.572;2023-04-24T04:37:23;8.82;;;6.53;;
28074;SDS011;15385;51.088;6.572;2023-04-24T04:39:55;14.82;;;7.32;;
28074;SDS011;15385;51.088;6.572;2023-04-24T04:42:26;11.18;;;6.90;;
28074;SDS011;15385;51.088;6.572;2023-04-24T04:44:57;12.27;;;7.68;;
28074;SDS011;15385;51.088;6.572;2023-04-24T04:47:27;11.68;;;6.95;;
28074;SDS011;15385;51.088;6.572;2023-04-24T04:49:58;9.93;;;7.13;;
28074;SDS011;15385;51.088;6.572;2023-04-24T04:52:29;9.77;;;6.57;;
28074;SDS011;15385;51.088;6.572;2023-04-24T04:55:00;10.30;;;6.55;;
28074;SDS011;15385;51.088;6.572;2023-04-24T04:57:31;13.88;;;7.35;;
28074;SDS011;15385;51.088;6.572;2023-04-24T05:00:01;12.07;;;6.50;;
28074;SDS011;15385;51.088;6.572;2023-04-24T05:02:32;10.35;;;6.30;;
28074;SDS011;15385;51.088;6.572;2023-04-24T05:05:02;12.07;;;6.80;;
28074;SDS011;15385;51.088;6.572;2023-04-24T05:07:33;9.80;;;6.68;;
28074;SDS011;15385;51.088;6.572;2023-04-24T05:10:04;10.73;;;6.53;;
28074;SDS011;15385;51.088;6.572;2023-04-24T05:12:35;10.77;;;6.72;;
28074;SDS011;15385;51.088;6.572;2023-04-24T05:15:06;10.43;;;6.65;;
28074;SDS011;15385;51.088;6.572;2023-04-24T05:17:37;8.52;;;6.20;;
28074;SDS011;15385;51.088;6.572;2023-04-24T05:20:09;9.95;;;6.75;;
28074;SDS011;15385;51.088;6.572;2023-04-24T05:22:40;11.27;;;7.78;;
28074;SDS011;15385;51.088;6.572;2023-04-24T05:25:10;9.25;;;6.82;;
28074;SDS011;15385;51.088;6.572;2023-04-24T05:27:42;11.75;;;7.00;;
28074;SDS011;15385;51.088;6.572;2023-04-24T05:30:13;10.00;;;7.10;;
28074;SDS011;15385;51.088;6.572;2023-04-24T05:32:44;9.32;;;6.40;;
28074;SDS011;15385;51.088;6.572;2023-04-24T05:35:15;12.00;;;6.90;;
28074;SDS011;15385;51.088;6.572;2023-04-24T05:37:45;10.93;;;6.78;;
28074;SDS011;15385;51.088;6.572;2023-04-24T05:40:16;10.77;;;6.82;;
28074;SDS011;15385;51.088;6.572;2023-04-24T05:42:46;13.77;;;7.13;;
28074;SDS011;15385;51.088;6.572;2023-04-24T05:45:17;11.50;;;7.00;;
28074;SDS011;15385;51.088;6.572;2023-04-24T05:47:47;11.27;;;6.60;;
28074;SDS011;15385;51.088;6.572;2023-04-24T05:50:18;9.60;;;6.03;;
28074;SDS011;15385;51.088;6.572;2023-04-24T05:52:49;10.63;;;6.40;;
28074;SDS011;15385;51.088;6.572;2023-04-24T05:55:20;9.60;;;6.45;;
28074;SDS011;15385;51.088;6.572;2023-04-24T05:57:50;6.47;;;5.70;;
28074;SDS011;15385;51.088;6.572;2023-04-24T06:00:21;7.65;;;5.20;;
28074;SDS011;15385;51.088;6.572;2023-04-24T06:02:54;6.43;;;4.93;;
28074;SDS011;15385;51.088;6.572;2023-04-24T06:05:25;10.38;;;5.45;;
28074;SDS011;15385;51.088;6.572;2023-04-24T06:07:56;7.97;;;5.10;;
28074;SDS011;15385;51.088;6.572;2023-04-24T06:10:26;5.68;;;4.38;;
28074;SDS011;15385;51.088;6.572;2023-04-24T06:12:57;8.25;;;5.05;;
28074;SDS011;15385;51.088;6.572;2023-04-24T06:15:30;7.82;;;5.18;;
28074;SDS011;15385;51.088;6.572;2023-04-24T06:18:01;8.93;;;4.72;;
28074;SDS011;15385;51.088;6.572;2023-04-24T06:20:31;8.70;;;5.10;;
28074;SDS011;15385;51.088;6.572;2023-04-24T06:23:02;6.35;;;4.70;;
28074;SDS011;15385;51.088;6.572;2023-04-24T06:25:32;6.65;;;4.70;;
28074;SDS011;15385;51.088;6.572;2023-04-24T06:28:03;6.72;;;4.75;;
28074;SDS011;15385;51.088;6.572;2023-04-24T06:30:33;8.27;;;5.10;;
28074;SDS011;15385;51.088;6.572;2023-04-24T06:33:04;6.43;;;4.90;;
28074;SDS011;15385;51.088;6.572;2023-04-24T06:35:35;7.78;;;5.05;;
28074;SDS011;15385;51.088;6.572;2023-04-24T06:38:07;6.22;;;4.47;;
28074;SDS011;15385;51.088;6.572;2023-04-24T06:40:38;8.70;;;4.50;;
28074;SDS011;15385;51.088;6.572;2023-04-24T06:43:08;8.07;;;3.92;;
28074;SDS011;15385;51.088;6.572;2023-04-24T06:45:40;4.93;;;3.60;;
28074;SDS011;15385;51.088;6.572;2023-04-24T06:48:13;5.50;;;3.20;;
28074;SDS011;15385;51.088;6.572;2023-04-24T06:50:43;5.47;;;3.50;;
28074;SDS011;15385;51.088;6.572;2023-04-24T06:53:15;4.50;;;3.35;;
28074;SDS011;15385;51.088;6.572;2023-04-24T06:55:45;3.75;;;3.00;;
28074;SDS011;15385;51.088;6.572;2023-04-24T06:58:16;4.40;;;3.00;;
28074;SDS011;15385;51.088;6.572;2023-04-24T07:00:47;3.90;;;3.00;;
28074;SDS011;15385;51.088;6.572;2023-04-24T07:03:18;2.60;;;1.80;;
28074;SDS011;15385;51.088;6.572;2023-04-24T07:05:48;2.10;;;1.60;;
28074;SDS011;15385;51.088;6.572;2023-04-24T07:08:19;3.25;;;1.75;;
28074;SDS011;15385;51.088;6.572;2023-04-24T07:10:51;2.75;;;1.80;;
28074;SDS011;15385;51.088;6.572;2023-04-24T07:13:22;2.67;;;1.80;;
28074;SDS011;15385;51.088;6.572;2023-04-24T07:15:53;3.55;;;1.88;;
28074;SDS011;15385;51.088;6.572;2023-04-24T07:18:26;2.83;;;2.03;;
28074;SDS011;15385;51.088;6.572;2023-04-24T07:20:56;2.78;;;1.73;;
28074;SDS011;15385;51.088;6.572;2023-04-24T07:23:27;2.45;;;1.83;;
28074;SDS011;15385;51.088;6.572;2023-04-24T07:25:57;5.05;;;2.08;;
28074;SDS011;15385;51.088;6.572;2023-04-24T07:28:28;3.22;;;2.17;;
28074;SDS011;15385;51.088;6.572;2023-04-24T07:31:01;5.05;;;2.70;;
28074;SDS011;15385;51.088;6.572;2023-04-24T07:33:32;3.42;;;1.58;;
28074;SDS011;15385;51.088;6.572;2023-04-24T07:36:03;1.55;;;0.70;;
28074;SDS011;15385;51.088;6.572;2023-04-24T07:38:34;0.65;;;0.43;;
28074;SDS011;15385;51.088;6.572;2023-04-24T07:41:05;1.02;;;0.50;;
28074;SDS011;15385;51.088;6.572;2023-04-24T07:43:35;0.50;;;0.30;;
28074;SDS011;15385;51.088;6.572;2023-04-24T07:46:06;0.52;;;0.30;;
28074;SDS011;15385;51.088;6.572;2023-04-24T07:48:38;0.88;;;0.52;;
28074;SDS011;15385;51.088;6.572;2023-04-24T07:51:08;2.38;;;0.68;;
28074;SDS011;15385;51.088;6.572;2023-04-24T07:53:41;0.98;;;0.73;;
28074;SDS011;15385;51.088;6.572;2023-04-24T07:56:12;1.88;;;1.17;;
28074;SDS011;15385;51.088;6.572;2023-04-24T07:58:43;2.78;;;1.80;;
28074;SDS011;15385;51.088;6.572;2023-04-24T08:01:14;3.30;;;2.28;;
28074;SDS011;15385;51.088;6.572;2023-04-24T08:03:44;5.60;;;2.80;;
28074;SDS011;15385;51.088;6.572;2023-04-24T08:06:15;6.53;;;3.58;;
28074;SDS011;15385;51.088;6.572;2023-04-24T08:08:45;4.90;;;3.38;;
28074;SDS011;15385;51.088;6.572;2023-04-24T08:11:16;5.22;;;3.10;;
28074;SDS011;15385;51.088;6.572;2023-04-24T08:13:46;5.53;;;3.13;;
28074;SDS011;15385;51.088;6.572;2023-04-24T08:16:17;5.20;;;2.95;;
28074;SDS011;15385;51.088;6.572;2023-04-24T08:18:48;5.85;;;2.85;;
28074;SDS011;15385;51.088;6.572;2023-04-24T08:21:18;5.88;;;3.30;;
28074;SDS011;15385;51.088;6.572;2023-04-24T08:23:50;5.35;;;3.45;;
28074;SDS011;15385;51.088;6.572;2023-04-24T08:26:21;8.38;;;3.10;;
28074;SDS011;15385;51.088;6.572;2023-04-24T08:28:51;4.60;;;3.33;;
28074;SDS011;15385;51.088;6.572;2023-04-24T08:31:22;4.60;;;3.45;;
28074;SDS011;15385;51.088;6.572;2023-04-24T08:33:54;4.72;;;3.50;;
28074;SDS011;15385;51.088;6.572;2023-04-24T08:36:25;5.43;;;3.80;;
28074;SDS011;15385;51.088;6.572;2023-04-24T08:38:56;4.88;;;3.83;;
28074;SDS011;15385;51.088;6.572;2023-04-24T08:41:26;6.03;;;4.03;;
28074;SDS011;15385;51.088;6.572;2023-04-24T08:43:57;5.10;;;3.95;;
28074;SDS011;15385;51.088;6.572;2023-04-24T08:46:29;4.93;;;3.72;;
28074;SDS011;15385;51.088;6.572;2023-04-24T08:49:00;5.43;;;3.65;;
28074;SDS011;15385;51.088;6.572;2023-04-24T08:51:32;8.13;;;4.55;;
28074;SDS011;15385;51.088;6.572;2023-04-24T08:54:03;6.07;;;4.05;;
28074;SDS011;15385;51.088;6.572;2023-04-24T08:56:35;6.43;;;4.20;;
28074;SDS011;15385;51.088;6.572;2023-04-24T08:59:09;9.05;;;4.45;;
28074;SDS011;15385;51.088;6.572;2023-04-24T09:01:41;8.02;;;4.25;;
28074;SDS011;15385;51.088;6.572;2023-04-24T09:04:12;7.03;;;4.50;;
28074;SDS011;15385;51.088;6.572;2023-04-24T09:06:46;9.40;;;5.50;;
28074;SDS011;15385;51.088;6.572;2023-04-24T09:09:18;8.98;;;4.85;;
28074;SDS011;15385;51.088;6.572;2023-04-24T09:11:50;7.68;;;5.68;;
28074;SDS011;15385;51.088;6.572;2023-04-24T09:14:23;10.98;;;5.95;;
28074;SDS011;15385;51.088;6.572;2023-04-24T09:16:54;9.95;;;6.10;;
28074;SDS011;15385;51.088;6.572;2023-04-24T09:19:24;11.05;;;5.60;;
28074;SDS011;15385;51.088;6.572;2023-04-24T09:21:55;10.70;;;6.00;;
28074;SDS011;15385;51.088;6.572;2023-04-24T09:24:26;10.32;;;5.57;;
28074;SDS011;15385;51.088;6.572;2023-04-24T09:26:57;10.10;;;6.20;;
28074;SDS011;15385;51.088;6.572;2023-04-24T09:29:28;10.77;;;6.45;;
28074;SDS011;15385;51.088;6.572;2023-04-24T09:31:59;12.27;;;7.10;;
28074;SDS011;15385;51.088;6.572;2023-04-24T09:34:48;13.93;;;6.65;;
28074;SDS011;15385;51.088;6.572;2023-04-24T09:37:29;12.02;;;6.70;;
28074;SDS011;15385;51.088;6.572;2023-04-24T09:40:19;13.27;;;7.10;;
28074;SDS011;15385;51.088;6.572;2023-04-24T09:45:21;12.85;;;6.75;;
28074;SDS011;15385;51.088;6.572;2023-04-24T09:47:52;11.30;;;5.90;;
28074;SDS011;15385;51.088;6.572;2023-04-24T09:50:24;12.57;;;5.95;;
28074;SDS011;15385;51.088;6.572;2023-04-24T09:52:58;11.00;;;6.10;;
28074;SDS011;15385;51.088;6.572;2023-04-24T09:55:31;10.43;;;5.40;;
28074;SDS011;15385;51.088;6.572;2023-04-24T09:58:01;11.15;;;5.93;;
28074;SDS011;15385;51.088;6.572;2023-04-24T10:00:35;12.55;;;5.18;;
28074;SDS011;15385;51.088;6.572;2023-04-24T10:03:05;12.32;;;5.30;;
28074;SDS011;15385;51.088;6.572;2023-04-24T10:05:36;9.20;;;4.97;;
28074;SDS011;15385;51.088;6.572;2023-04-24T10:08:09;12.60;;;5.18;;
28074;SDS011;15385;51.088;6.572;2023-04-24T10:10:42;8.40;;;5.00;;
28074;SDS011;15385;51.088;6.572;2023-04-24T10:13:14;9.15;;;4.45;;
28074;SDS011;15385;51.088;6.572;2023-04-24T10:15:45;9.70;;;4.93;;
28074;SDS011;15385;51.088;6.572;2023-04-24T10:18:18;13.38;;;4.53;;
28074;SDS011;15385;51.088;6.572;2023-04-24T10:20:51;11.40;;;4.28;;
28074;SDS011;15385;51.088;6.572;2023-04-24T10:23:24;10.90;;;4.57;;
28074;SDS011;15385;51.088;6.572;2023-04-24T10:25:55;8.73;;;3.85;;
28074;SDS011;15385;51.088;6.572;2023-04-24T10:28:26;10.25;;;3.30;;
28074;SDS011;15385;51.088;6.572;2023-04-24T10:30:59;11.80;;;4.10;;
28074;SDS011;15385;51.088;6.572;2023-04-24T10:33:30;9.10;;;3.72;;
28074;SDS011;15385;51.088;6.572;2023-04-24T10:36:01;10.60;;;3.40;;
28074;SDS011;15385;51.088;6.572;2023-04-24T10:38:32;14.05;;;3.55;;
28074;SDS011;15385;51.088;6.572;2023-04-24T10:41:08;9.07;;;3.58;;
28074;SDS011;15385;51.088;6.572;2023-04-24T10:43:44;10.45;;;3.53;;
28074;SDS011;15385;51.088;6.572;2023-04-24T10:46:21;8.43;;;3.30;;
28074;SDS011;15385;51.088;6.572;2023-04-24T10:48:52;9.10;;;3.33;;
28074;SDS011;15385;51.088;6.572;2023-04-24T10:54:36;7.68;;;3.55;;
28074;SDS011;15385;51.088;6.572;2023-04-24T11:00:09;9.18;;;3.10;;
28074;SDS011;15385;51.088;6.572;2023-04-24T11:02:45;6.70;;;3.17;;
28074;SDS011;15385;51.088;6.572;2023-04-24T11:05:21;9.93;;;3.15;;
28074;SDS011;15385;51.088;6.572;2023-04-24T11:10:45;13.15;;;3.80;;
28074;SDS011;15385;51.088;6.572;2023-04-24T11:13:17;11.35;;;3.75;;
28074;SDS011;15385;51.088;6.572;2023-04-24T11:18:44;10.93;;;4.72;;
28074;SDS011;15385;51.088;6.572;2023-04-24T11:21:21;10.10;;;3.72;;
28074;SDS011;15385;51.088;6.572;2023-04-24T11:23:52;9.77;;;3.70;;
28074;SDS011;15385;51.088;6.572;2023-04-24T11:26:23;10.65;;;4.03;;
28074;SDS011;15385;51.088;6.572;2023-04-24T11:29:09;11.55;;;3.60;;
28074;SDS011;15385;51.088;6.572;2023-04-24T11:31:40;10.43;;;3.47;;
28074;SDS011;15385;51.088;6.572;2023-04-24T11:34:18;9.25;;;4.07;;
28074;SDS011;15385;51.088;6.572;2023-04-24T11:36:49;14.88;;;4.60;;
28074;SDS011;15385;51.088;6.572;2023-04-24T11:39:19;7.70;;;3.80;;
28074;SDS011;15385;51.088;6.572;2023-04-24T11:41:50;11.73;;;3.90;;
28074;SDS011;15385;51.088;6.572;2023-04-24T11:44:21;12.07;;;3.72;;
28074;SDS011;15385;51.088;6.572;2023-04-24T11:46:55;12.38;;;3.53;;
28074;SDS011;15385;51.088;6.572;2023-04-24T11:49:26;12.48;;;3.55;;
28074;SDS011;15385;51.088;6.572;2023-04-24T11:51:56;9.88;;;3.40;;
28074;SDS011;15385;51.088;6.572;2023-04-24T11:54:27;7.20;;;2.78;;
28074;SDS011;15385;51.088;6.572;2023-04-24T11:56:58;10.50;;;3.25;;
28074;SDS011;15385;51.088;6.572;2023-04-24T11:59:29;10.43;;;3.10;;
28074;SDS011;15385;51.088;6.572;2023-04-24T12:02:05;8.98;;;3.25;;
28074;SDS011;15385;51.088;6.572;2023-04-24T12:04:39;8.20;;;2.88;;
28074;SDS011;15385;51.088;6.572;2023-04-24T12:07:13;7.15;;;2.63;;
28074;SDS011;15385;51.088;6.572;2023-04-24T12:09:44;5.00;;;2.13;;
28074;SDS011;15385;51.088;6.572;2023-04-24T12:12:18;9.27;;;2.50;;
28074;SDS011;15385;51.088;6.572;2023-04-24T12:14:49;5.50;;;3.05;;
28074;SDS011;15385;51.088;6.572;2023-04-24T12:17:29;9.02;;;2.25;;
28074;SDS011;15385;51.088;6.572;2023-04-24T12:20:02;5.70;;;2.70;;
28074;SDS011;15385;51.088;6.572;2023-04-24T12:22:51;7.30;;;2.33;;
28074;SDS011;15385;51.088;6.572;2023-04-24T12:30:35;5.70;;;2.60;;
28074;SDS011;15385;51.088;6.572;2023-04-24T12:33:19;7.80;;;2.92;;
28074;SDS011;15385;51.088;6.572;2023-04-24T12:35:53;7.68;;;2.75;;
28074;SDS011;15385;51.088;6.572;2023-04-24T12:38:28;7.20;;;2.72;;
28074;SDS011;15385;51.088;6.572;2023-04-24T12:41:03;7.07;;;2.60;;
28074;SDS011;15385;51.088;6.572;2023-04-24T12:43:36;7.55;;;3.05;;
28074;SDS011;15385;51.088;6.572;2023-04-24T12:46:07;7.10;;;2.60;;
28074;SDS011;15385;51.088;6.572;2023-04-24T12:48:38;11.55;;;3.13;;
28074;SDS011;15385;51.088;6.572;2023-04-24T12:51:08;8.93;;;2.75;;
28074;SDS011;15385;51.088;6.572;2023-04-24T12:53:39;9.35;;;2.75;;
28074;SDS011;15385;51.088;6.572;2023-04-24T12:56:10;7.72;;;2.67;;
28074;SDS011;15385;51.088;6.572;2023-04-24T12:58:40;6.85;;;2.35;;
28074;SDS011;15385;51.088;6.572;2023-04-24T13:01:11;8.00;;;2.80;;
28074;SDS011;15385;51.088;6.572;2023-04-24T13:03:42;8.60;;;2.60;;
28074;SDS011;15385;51.088;6.572;2023-04-24T13:06:13;5.22;;;2.30;;
28074;SDS011;15385;51.088;6.572;2023-04-24T13:08:44;5.15;;;2.17;;
28074;SDS011;15385;51.088;6.572;2023-04-24T13:11:14;5.70;;;2.28;;
28074;SDS011;15385;51.088;6.572;2023-04-24T13:13:45;7.07;;;2.50;;
28074;SDS011;15385;51.088;6.572;2023-04-24T13:16:16;11.27;;;2.80;;
28074;SDS011;15385;51.088;6.572;2023-04-24T13:18:46;7.35;;;2.58;;
28074;SDS011;15385;51.088;6.572;2023-04-24T13:21:17;6.32;;;2.63;;
28074;SDS011;15385;51.088;6.572;2023-04-24T13:23:47;6.55;;;2.20;;
28074;SDS011;15385;51.088;6.572;2023-04-24T13:26:19;6.10;;;2.00;;
28074;SDS011;15385;51.088;6.572;2023-04-24T13:28:49;4.45;;;2.05;;
28074;SDS011;15385;51.088;6.572;2023-04-24T13:31:20;6.35;;;2.30;;
28074;SDS011;15385;51.088;6.572;2023-04-24T13:33:51;6.75;;;2.67;;
28074;SDS011;15385;51.088;6.572;2023-04-24T13:36:21;10.07;;;2.95;;
28074;SDS011;15385;51.088;6.572;2023-04-24T13:38:52;14.73;;;2.78;;
28074;SDS011;15385;51.088;6.572;2023-04-24T13:41:23;7.30;;;2.58;;
28074;SDS011;15385;51.088;6.572;2023-04-24T13:43:54;9.63;;;2.95;;
28074;SDS011;15385;51.088;6.572;2023-04-24T13:46:25;5.82;;;2.75;;
28074;SDS011;15385;51.088;6.572;2023-04-24T13:48:56;6.40;;;2.80;;
28074;SDS011;15385;51.088;6.572;2023-04-24T13:51:27;7.45;;;2.95;;
28074;SDS011;15385;51.088;6.572;2023-04-24T13:53:58;6.68;;;2.78;;
28074;SDS011;15385;51.088;6.572;2023-04-24T13:56:29;9.07;;;2.70;;
28074;SDS011;15385;51.088;6.572;2023-04-24T13:59:00;7.38;;;2.92;;
28074;SDS011;15385;51.088;6.572;2023-04-24T14:01:31;4.97;;;2.45;;
28074;SDS011;15385;51.088;6.572;2023-04-24T14:04:01;6.07;;;2.67;;
28074;SDS011;15385;51.088;6.572;2023-04-24T14:06:32;7.40;;;1.88;;
28074;SDS011;15385;51.088;6.572;2023-04-24T14:09:03;6.97;;;2.50;;
28074;SDS011;15385;51.088;6.572;2023-04-24T14:11:34;7.25;;;2.17;;
28074;SDS011;15385;51.088;6.572;2023-04-24T14:14:05;5.60;;;1.90;;
28074;SDS011;15385;51.088;6.572;2023-04-24T14:16:36;5.78;;;1.77;;
28074;SDS011;15385;51.088;6.572;2023-04-24T14:19:06;4.90;;;2.08;;
28074;SDS011;15385;51.088;6.572;2023-04-24T14:21:37;10.63;;;2.67;;
28074;SDS011;15385;51.088;6.572;2023-04-24T14:24:08;7.05;;;2.40;;
28074;SDS011;15385;51.088;6.572;2023-04-24T14:26:39;6.63;;;2.60;;
28074;SDS011;15385;51.088;6.572;2023-04-24T14:29:09;6.05;;;2.38;;
28074;SDS011;15385;51.088;6.572;2023-04-24T14:31:40;7.53;;;2.38;;
28074;SDS011;15385;51.088;6.572;2023-04-24T14:34:12;4.50;;;1.80;;
28074;SDS011;15385;51.088;6.572;2023-04-24T14:36:43;5.75;;;1.83;;
28074;SDS011;15385;51.088;6.572;2023-04-24T14:39:14;3.83;;;2.20;;
28074;SDS011;15385;51.088;6.572;2023-04-24T14:41:45;5.18;;;1.92;;
28074;SDS011;15385;51.088;6.572;2023-04-24T14:44:15;3.47;;;1.70;;
28074;SDS011;15385;51.088;6.572;2023-04-24T14:46:46;3.75;;;2.20;;
28074;SDS011;15385;51.088;6.572;2023-04-24T14:49:16;5.88;;;1.90;;
28074;SDS011;15385;51.088;6.572;2023-04-24T14:51:47;3.65;;;1.90;;
28074;SDS011;15385;51.088;6.572;2023-04-24T14:54:17;5.63;;;2.00;;
28074;SDS011;15385;51.088;6.572;2023-04-24T14:56:49;2.95;;;1.83;;
28074;SDS011;15385;51.088;6.572;2023-04-24T14:59:20;5.10;;;1.92;;
28074;SDS011;15385;51.088;6.572;2023-04-24T15:01:51;4.80;;;1.73;;
28074;SDS011;15385;51.088;6.572;2023-04-24T15:04:24;5.30;;;1.60;;
28074;SDS011;15385;51.088;6.572;2023-04-24T15:06:57;3.55;;;1.63;;
28074;SDS011;15385;51.088;6.572;2023-04-24T15:09:28;4.72;;;1.65;;
28074;SDS011;15385;51.088;6.572;2023-04-24T15:11:58;2.45;;;1.60;;
28074;SDS011;15385;51.088;6.572;2023-04-24T15:14:29;3.50;;;1.90;;
28074;SDS011;15385;51.088;6.572;2023-04-24T15:17:00;2.85;;;1.80;;
28074;SDS011;15385;51.088;6.572;2023-04-24T15:19:31;4.82;;;1.67;;
28074;SDS011;15385;51.088;6.572;2023-04-24T15:22:01;3.58;;;1.67;;
28074;SDS011;15385;51.088;6.572;2023-04-24T15:24:32;3.15;;;1.73;;
28074;SDS011;15385;51.088;6.572;2023-04-24T15:27:02;4.10;;;1.77;;
28074;SDS011;15385;51.088;6.572;2023-04-24T15:29:33;2.83;;;1.92;;